Siren, WI

4:39 AM CST on February 27, 2017 (GMT -0600)
Burnett County

Weather History for KRZN - May, 2013

Change the Weather History Date:

Wednesday, May 22, 2013

  Actual Average Record
Temperature  
Mean Temperature 46 °F -  
Max Temperature 51 °F - - ()
Min Temperature 42 °F - - ()
Degree Days  
Heating Degree Days 18    
Moisture  
Dew Point 43 °F    
Average Humidity 86    
Maximum Humidity 96    
Minimum Humidity 76    
Precipitation  
Precipitation 0.01 in - - ()
Sea Level Pressure  
Sea Level Pressure 29.84 in    
Wind  
Wind Speed 9 mph (NE)    
Max Wind Speed 18 mph    
Max Gust Speed 26 mph    
Visibility 10 miles    
Events Rain    
Averages and records for this station are not official NWS values.
T = Trace of Precipitation, MM = Missing Value Source: NWS Daily Summary

Daily Weather History Graph

Daily Weather History Graph

Search for Another Location

Airport or City:

Trip Planner

Search our weather history database for the weather conditions in past years. The results will help you decide how hot, cold, wet, or windy it might be!

Date:

Astronomy

May. 22, 2013 Rise Set
Actual Time 5:30 AM CDT 8:42 PM CDT
Civil Twilight 4:54 AM CDT 9:18 PM CDT
Nautical Twilight 4:07 AM CDT 10:05 PM CDT
Astronomical Twilight 3:10 AM CDT 11:03 PM CDT
Moon 5:58 PM CDT (5/22) 3:43 AM CDT (5/22)
Length of Visible Light 16h 24m
Length of Day
15h 12m
Waxing Gibbous, 91% of the Moon is Illuminated
May 22
Waxing Gibbous
May 24
Full
May 31
Last Quarter
Jun 8
New
Jun 16
First Quarter

Hourly Weather History & Observations

Time (CDT) Temp. Windchill Dew Point Humidity Pressure Visibility Wind Dir Wind Speed Gust Speed Precip Events Conditions
12:15 AM 42.1 °F 37.1 °F 41.0 °F 96% 29.75 in 10.0 mi NE 8.1 mph - N/A   Overcast
12:35 AM 42.1 °F 36.6 °F 41.0 °F 96% 29.75 in 10.0 mi NE 9.2 mph - N/A   Overcast
12:55 AM 42.3 °F 39.4 °F 41.0 °F 95% 29.75 in 10.0 mi NE 4.6 mph - N/A   Overcast
1:15 AM 42.4 °F 37.5 °F 41.0 °F 95% 29.75 in 10.0 mi NE 8.1 mph - N/A   Overcast
1:35 AM 42.4 °F 37.5 °F 40.8 °F 94% 29.75 in 10.0 mi NE 8.1 mph - N/A   Overcast
1:55 AM 42.4 °F 38.1 °F 41.0 °F 95% 29.75 in 10.0 mi NE 6.9 mph - N/A   Overcast
2:15 AM 42.8 °F 39.3 °F 41.0 °F 93% 29.75 in 10.0 mi NE 5.8 mph - N/A   Overcast
2:35 AM 42.4 °F 38.8 °F 41.0 °F 95% 29.74 in 10.0 mi NE 5.8 mph - N/A   Drizzle
2:55 AM 42.8 °F 37.0 °F 41.2 °F 94% 29.74 in 10.0 mi NE 10.4 mph 16.1 mph N/A   Overcast
3:15 AM 42.8 °F 39.3 °F 41.2 °F 94% 29.74 in 10.0 mi ENE 5.8 mph - N/A   Overcast
3:35 AM 43.0 °F 39.5 °F 41.2 °F 93% 29.75 in 10.0 mi NE 5.8 mph - N/A   Overcast
3:55 AM 43.0 °F 38.8 °F 41.2 °F 93% 29.75 in 10.0 mi NE 6.9 mph - N/A   Overcast
4:15 AM 43.2 °F 40.5 °F 41.0 °F 92% 29.76 in 10.0 mi NE 4.6 mph - N/A   Overcast
4:35 AM 43.2 °F 39.7 °F 41.0 °F 92% 29.76 in 10.0 mi NE 5.8 mph - N/A   Overcast
4:55 AM 43.0 °F 40.3 °F 40.6 °F 91% 29.76 in 10.0 mi ENE 4.6 mph - N/A   Overcast
5:15 AM 43.2 °F 41.5 °F 41.0 °F 92% 29.77 in 10.0 mi ENE 3.5 mph - N/A   Overcast
5:35 AM 43.2 °F 39.7 °F 41.0 °F 92% 29.77 in 10.0 mi NE 5.8 mph - N/A   Overcast
5:55 AM 43.2 °F 39.0 °F 41.0 °F 92% 29.77 in 10.0 mi NE 6.9 mph - N/A   Overcast
6:15 AM 43.2 °F 39.7 °F 41.0 °F 92% 29.77 in 10.0 mi NE 5.8 mph - N/A   Overcast
6:35 AM 43.3 °F 39.9 °F 41.2 °F 92% 29.77 in 10.0 mi NE 5.8 mph - N/A   Overcast
6:55 AM 43.7 °F 39.7 °F 41.4 °F 91% 29.77 in 10.0 mi NE 6.9 mph - N/A   Overcast
7:15 AM 43.7 °F 39.7 °F 41.5 °F 92% 29.77 in 10.0 mi NE 6.9 mph - N/A   Overcast
7:35 AM 44.1 °F 40.1 °F 41.4 °F 90% 29.77 in 10.0 mi NE 6.9 mph - N/A   Overcast
7:55 AM 44.6 °F 40.7 °F 41.7 °F 90% 29.77 in 10.0 mi NE 6.9 mph - N/A   Overcast
8:15 AM 44.8 °F 39.4 °F 42.1 °F 90% 29.77 in 10.0 mi NE 10.4 mph - N/A   Overcast
8:35 AM 45.5 °F 39.6 °F 42.4 °F 89% 29.77 in 10.0 mi NE 12.7 mph 16.1 mph N/A   Overcast
8:55 AM 45.7 °F 40.6 °F 42.4 °F 88% 29.78 in 10.0 mi NE 10.4 mph 16.1 mph N/A   Overcast
9:15 AM 46.0 °F 41.9 °F 42.4 °F 87% 29.78 in 10.0 mi NE 8.1 mph 16.1 mph N/A   Overcast
9:35 AM 46.6 °F - 42.6 °F 86% 29.79 in 10.0 mi NE 9.2 mph - N/A   Overcast
9:55 AM 46.9 °F - 42.8 °F 86% 29.79 in 10.0 mi ENE 8.1 mph - N/A   Overcast
10:15 AM 47.3 °F - 43.0 °F 85% 29.79 in 10.0 mi ENE 9.2 mph 17.3 mph N/A   Overcast
10:35 AM 48.2 °F - 43.0 °F 82% 29.79 in 10.0 mi NE 12.7 mph 19.6 mph N/A   Overcast
10:55 AM 48.9 °F - 43.5 °F 82% 29.79 in 10.0 mi NE 12.7 mph 19.6 mph N/A   Overcast
11:15 AM 49.3 °F - 43.5 °F 81% 29.80 in 10.0 mi NE 13.8 mph 20.7 mph N/A   Overcast
11:35 AM 50.0 °F - 43.9 °F 79% 29.80 in 10.0 mi NE 13.8 mph 19.6 mph N/A   Overcast
11:55 AM 50.4 °F - 43.9 °F 78% 29.80 in 10.0 mi NE 12.7 mph - N/A   Overcast
12:15 PM 50.4 °F - 44.1 °F 79% 29.81 in 10.0 mi NE 15.0 mph 21.9 mph N/A   Overcast
12:35 PM 50.2 °F - 43.9 °F 79% 29.81 in 10.0 mi ENE 13.8 mph 20.7 mph N/A   Overcast
12:55 PM 50.9 °F - 44.1 °F 77% 29.81 in 10.0 mi NE 11.5 mph 19.6 mph N/A   Overcast
1:15 PM 51.1 °F - 44.2 °F 77% 29.81 in 10.0 mi NE 13.8 mph 21.9 mph N/A   Overcast
1:35 PM 51.3 °F - 44.2 °F 77% 29.81 in 10.0 mi NE 10.4 mph 25.3 mph N/A   Overcast
1:55 PM 51.3 °F - 44.4 °F 77% 29.81 in 10.0 mi NE 16.1 mph 25.3 mph N/A   Overcast
2:15 PM 51.1 °F - 44.2 °F 77% 29.83 in 10.0 mi NE 10.4 mph 25.3 mph N/A   Overcast
2:35 PM 50.5 °F - 45.1 °F 82% 29.84 in 10.0 mi NE 11.5 mph 21.9 mph N/A   Overcast
2:55 PM 50.9 °F - 43.9 °F 77% 29.84 in 10.0 mi NE 18.4 mph 26.5 mph N/A   Overcast
3:15 PM 50.2 °F - 43.5 °F 78% 29.85 in 10.0 mi NE 12.7 mph 25.3 mph N/A   Overcast
3:35 PM 50.0 °F - 44.1 °F 80% 29.85 in 10.0 mi NNE 15.0 mph 21.9 mph N/A   Overcast
3:55 PM 49.1 °F - 44.6 °F 84% 29.85 in 10.0 mi NE 16.1 mph 21.9 mph N/A   Overcast
4:15 PM 48.0 °F - 45.5 °F 91% 29.86 in 5.0 mi NE 15.0 mph 24.2 mph N/A Rain Light Rain
4:35 PM 47.5 °F - 45.5 °F 93% 29.87 in 3.0 mi NE 13.8 mph 26.5 mph N/A Rain Light Rain
4:55 PM 47.3 °F - 45.3 °F 93% 29.88 in 5.0 mi NE 10.4 mph 23.0 mph N/A Rain Light Rain
5:15 PM 47.3 °F - 45.5 °F 93% 29.88 in 5.0 mi NE 12.7 mph 18.4 mph N/A   Drizzle
5:35 PM 47.5 °F - 45.5 °F 93% 29.89 in 5.0 mi NE 13.8 mph 18.4 mph N/A   Light Drizzle
5:55 PM 48.2 °F - 45.3 °F 90% 29.90 in 10.0 mi NE 11.5 mph 17.3 mph N/A   Overcast
6:15 PM 48.7 °F - 43.9 °F 83% 29.90 in 10.0 mi NE 10.4 mph 20.7 mph N/A   Overcast
6:35 PM 49.1 °F - 43.7 °F 82% 29.90 in 10.0 mi NE 16.1 mph 26.5 mph N/A   Overcast
6:55 PM 49.1 °F - 43.7 °F 82% 29.91 in 10.0 mi NE 11.5 mph 20.7 mph N/A Rain Rain
7:15 PM 48.4 °F - 44.2 °F 86% 29.92 in 10.0 mi ENE 12.7 mph 21.9 mph N/A Rain Light Rain
7:35 PM 48.6 °F - 43.5 °F 83% 29.93 in 10.0 mi ENE 11.5 mph 18.4 mph N/A   Overcast
7:55 PM 49.1 °F - 42.8 °F 79% 29.93 in 10.0 mi NE 9.2 mph 16.1 mph N/A   Overcast
8:15 PM 49.1 °F - 42.4 °F 78% 29.94 in 10.0 mi NE 8.1 mph 16.1 mph N/A   Mostly Cloudy
8:35 PM 49.1 °F - 42.3 °F 77% 29.94 in 10.0 mi NE 8.1 mph - N/A   Mostly Cloudy
8:55 PM 48.7 °F - 42.1 °F 78% 29.96 in 10.0 mi NNE 9.2 mph - N/A   Overcast
9:15 PM 48.7 °F - 41.4 °F 76% 29.96 in 10.0 mi NE 8.1 mph - N/A   Overcast
9:35 PM 48.9 °F - 41.5 °F 76% 29.97 in 10.0 mi NNE 6.9 mph - N/A   Overcast
9:55 PM 48.4 °F - 41.0 °F 76% 29.98 in 10.0 mi NE 5.8 mph - N/A   Scattered Clouds
10:15 PM 47.5 °F - 41.0 °F 78% 29.99 in 10.0 mi NE 6.9 mph - N/A   Clear
10:35 PM 46.9 °F - 40.6 °F 79% 30.00 in 10.0 mi NNE 6.9 mph - N/A   Clear
10:55 PM 47.5 °F - 40.5 °F 77% 30.00 in 10.0 mi NE 6.9 mph - N/A   Clear
11:15 PM 47.3 °F - 40.5 °F 77% 30.01 in 10.0 mi NE 5.8 mph - N/A   Clear
11:35 PM 47.3 °F - 40.5 °F 77% 30.02 in 10.0 mi NE 8.1 mph - N/A   Clear
11:55 PM 47.7 °F - 40.5 °F 76% 30.04 in 10.0 mi ENE 10.4 mph - N/A   Clear